Time;durP1;ratioP1;P1;durP2;ratioP2;P2;SDS_P1;SDS_P2;PMS_P1;PMS_P2;Temp;Humidity;BMP_temperature;BMP_pressure;BME280_temperature;BME280_humidity;BME280_pressure;Samples;Min_cycle;Max_cycle;Signal;HPM_P1;HPM_P2
2021/06/08 00:01:03;;;;;;;18.05;15.70;;;15.40;99.90;;;;;;5075075;28;20547;-81
2021/06/08 00:03:32;;;;;;;17.50;15.63;;;15.30;99.90;;;;;;5076747;28;20505;-82
2021/06/08 00:05:59;;;;;;;18.73;15.95;;;15.30;99.90;;;;;;5078459;28;20483;-81
2021/06/08 00:08:25;;;;;;;18.67;16.33;;;15.30;99.90;;;;;;5076817;28;20040;-81
2021/06/08 00:10:51;;;;;;;19.10;16.10;;;15.20;99.90;;;;;;5092347;28;20594;-81
2021/06/08 00:13:17;;;;;;;18.10;16.23;;;15.20;99.90;;;;;;5066190;28;20114;-81
2021/06/08 00:15:42;;;;;;;17.83;15.93;;;15.20;99.90;;;;;;5077511;28;20055;-81
2021/06/08 00:18:08;;;;;;;18.10;15.40;;;15.10;99.90;;;;;;5074959;28;20115;-81
2021/06/08 00:20:36;;;;;;;17.67;15.88;;;15.10;99.90;;;;;;5066187;28;20055;-81
2021/06/08 00:23:02;;;;;;;18.95;16.35;;;15.10;99.90;;;;;;5078747;28;20037;-81
2021/06/08 00:25:28;;;;;;;18.05;16.08;;;15.20;99.90;;;;;;5058576;28;20510;-81
2021/06/08 00:27:56;;;;;;;17.80;15.80;;;15.20;99.90;;;;;;5081161;28;20039;-82
2021/06/08 00:30:23;;;;;;;20.15;16.17;;;15.30;99.90;;;;;;5091907;28;20054;-81
2021/06/08 00:32:49;;;;;;;18.02;15.63;;;15.20;99.90;;;;;;5074115;28;20036;-81
2021/06/08 00:35:15;;;;;;;21.40;17.65;;;15.20;99.90;;;;;;5075796;28;20042;-81
2021/06/08 00:37:41;;;;;;;19.67;17.58;;;15.10;99.90;;;;;;5084343;28;20040;-81
2021/06/08 00:40:08;;;;;;;20.40;17.45;;;15.10;99.90;;;;;;5088333;28;20521;-81
2021/06/08 00:42:36;;;;;;;19.65;17.48;;;15.00;99.90;;;;;;5069880;28;20040;-81
2021/06/08 00:45:06;;;;;;;21.08;18.75;;;15.00;99.90;;;;;;5087788;28;20040;-81
2021/06/08 00:47:34;;;;;;;24.42;20.27;;;15.00;99.90;;;;;;5066628;28;20489;-81
2021/06/08 00:50:14;;;;;;;22.70;20.25;;;15.00;99.90;;;;;;5087611;28;20503;-81
2021/06/08 00:52:43;;;;;;;23.95;20.40;;;15.00;99.90;;;;;;5088233;28;20035;-82
2021/06/08 00:55:13;;;;;;;22.27;19.88;;;15.00;99.90;;;;;;5070416;28;20125;-81
2021/06/08 00:57:39;;;;;;;20.52;17.40;;;15.00;99.90;;;;;;5070121;28;20077;-81
2021/06/08 01:00:08;;;;;;;23.55;19.25;;;15.00;99.90;;;;;;5087892;28;20048;-81
2021/06/08 01:02:34;;;;;;;23.95;20.50;;;15.00;99.90;;;;;;5069669;28;20044;-81
2021/06/08 01:05:06;;;;;;;20.50;18.17;;;15.00;99.90;;;;;;5088167;28;20035;-81
2021/06/08 01:07:33;;;;;;;24.05;18.00;;;15.10;99.90;;;;;;5086598;28;20121;-81
2021/06/08 01:10:00;;;;;;;20.33;18.10;;;15.10;99.90;;;;;;5053892;28;20055;-81
2021/06/08 01:12:26;;;;;;;23.73;17.65;;;15.00;99.90;;;;;;5086787;28;20479;-80
2021/06/08 01:14:53;;;;;;;20.63;18.40;;;15.00;99.90;;;;;;5088506;28;20040;-81
2021/06/08 01:17:19;;;;;;;18.98;16.45;;;15.10;99.90;;;;;;5085759;28;20036;-81
2021/06/08 01:19:50;;;;;;;17.70;15.88;;;15.10;99.90;;;;;;5087244;28;20063;-81
2021/06/08 01:22:16;;;;;;;19.08;17.08;;;15.00;99.90;;;;;;5114956;27;20399;-79
2021/06/08 01:24:44;;;;;;;19.00;17.05;;;15.00;99.90;;;;;;5059267;28;20128;-79
2021/06/08 01:27:10;;;;;;;19.63;17.35;;;15.00;99.90;;;;;;5085757;28;20484;-79
2021/06/08 01:29:38;;;;;;;22.05;18.38;;;15.00;99.90;;;;;;5087326;28;20046;-79
2021/06/08 01:32:04;;;;;;;22.23;18.70;;;14.90;99.90;;;;;;5086205;28;20407;-79
2021/06/08 01:34:32;;;;;;;19.30;16.70;;;14.90;99.90;;;;;;5085751;28;20038;-79
2021/06/08 01:36:57;;;;;;;21.35;17.80;;;14.90;99.90;;;;;;5086322;28;20472;-79
2021/06/08 01:39:25;;;;;;;22.63;18.90;;;14.90;99.90;;;;;;5069474;28;20048;-79
2021/06/08 01:41:51;;;;;;;21.63;18.33;;;14.90;99.90;;;;;;5088382;28;20044;-79
2021/06/08 01:44:17;;;;;;;20.77;18.58;;;14.90;99.90;;;;;;5087334;28;20380;-79
2021/06/08 01:46:42;;;;;;;20.42;18.25;;;14.90;99.90;;;;;;5086154;28;20032;-79
2021/06/08 01:49:08;;;;;;;22.15;18.58;;;14.90;99.90;;;;;;5053450;28;20059;-79
2021/06/08 01:51:40;;;;;;;20.02;17.90;;;14.90;99.90;;;;;;5069989;28;20487;-79
2021/06/08 01:54:43;;;;;;;20.40;17.70;;;15.00;99.90;;;;;;5085849;28;20735;-79
2021/06/08 01:57:30;;;;;;;20.30;18.20;;;15.00;99.90;;;;;;5087864;28;20040;-79
2021/06/08 02:00:05;;;;;;;22.52;19.25;;;15.00;99.90;;;;;;5067170;28;20048;-79
2021/06/08 02:03:07;;;;;;;21.92;18.83;;;15.00;99.90;;;;;;5067754;28;20033;-79
2021/06/08 02:05:45;;;;;;;20.10;16.83;;;15.00;99.90;;;;;;5081297;28;20064;-79
2021/06/08 02:08:33;;;;;;;19.77;17.67;;;14.90;99.90;;;;;;5085872;28;20483;-79
2021/06/08 02:11:00;;;;;;;19.48;17.48;;;14.90;99.90;;;;;;5069958;28;20048;-79
2021/06/08 02:14:12;;;;;;;19.27;16.48;;;14.90;99.90;;;;;;5087428;28;20044;-79
2021/06/08 02:17:00;;;;;;;19.23;17.15;;;14.90;99.90;;;;;;5058743;28;20048;-79
2021/06/08 02:19:30;;;;;;;22.63;18.42;;;14.90;99.90;;;;;;5086518;28;20047;-79
2021/06/08 02:21:59;;;;;;;24.35;19.42;;;14.90;99.90;;;;;;5070051;28;20075;-79
2021/06/08 02:24:28;;;;;;;22.50;20.05;;;14.80;99.90;;;;;;5086017;28;20047;-79
2021/06/08 02:27:08;;;;;;;21.00;18.70;;;14.80;99.90;;;;;;5086606;28;20555;-79
2021/06/08 02:29:37;;;;;;;21.42;18.20;;;14.70;99.90;;;;;;5087789;28;20051;-79
2021/06/08 02:32:05;;;;;;;20.38;18.23;;;14.70;99.90;;;;;;5087257;28;20392;-79
2021/06/08 02:34:32;;;;;;;20.52;17.98;;;14.70;99.90;;;;;;5067953;28;20039;-79
2021/06/08 02:37:14;;;;;;;;;;;14.70;99.90;;;;;;5084854;28;20482;-79
2021/06/08 02:39:42;;;;;;;22.55;18.60;;;14.70;99.90;;;;;;5120551;27;19924;-78
2021/06/08 02:42:10;;;;;;;20.52;18.35;;;14.70;99.90;;;;;;5091352;28;20043;-80
2021/06/08 02:44:41;;;;;;;21.30;17.92;;;14.70;99.90;;;;;;5090142;28;20397;-80
2021/06/08 02:47:17;;;;;;;20.23;18.02;;;14.70;99.90;;;;;;5089704;28;20109;-79
2021/06/08 02:49:45;;;;;;;21.20;18.90;;;14.70;99.90;;;;;;5089261;28;20047;-79
2021/06/08 02:52:13;;;;;;;32.00;18.98;;;14.70;99.90;;;;;;5089449;28;20131;-79
2021/06/08 02:54:44;;;;;;;22.90;19.75;;;14.70;99.90;;;;;;5089172;28;20081;-78
2021/06/08 02:57:13;;;;;;;24.95;19.88;;;14.70;99.90;;;;;;5090946;28;20054;-79
2021/06/08 02:59:42;;;;;;;24.13;20.10;;;14.70;99.90;;;;;;5072316;28;20046;-79
2021/06/08 03:02:12;;;;;;;23.17;20.10;;;14.70;99.90;;;;;;5072712;28;20044;-79
2021/06/08 03:05:11;;;;;;;23.15;19.63;;;14.70;99.90;;;;;;5090026;28;20028;-79
2021/06/08 03:07:40;;;;;;;21.65;19.25;;;14.70;99.90;;;;;;5088004;28;20063;-79
2021/06/08 03:10:13;;;;;;;25.77;20.92;;;14.70;99.90;;;;;;5090299;28;20044;-79
2021/06/08 03:12:57;;;;;;;24.60;21.00;;;14.70;99.90;;;;;;5089444;28;20414;-79
2021/06/08 03:15:29;;;;;;;22.65;20.10;;;14.70;99.90;;;;;;5088452;28;20044;-79
2021/06/08 03:17:56;;;;;;;24.52;20.45;;;14.70;99.90;;;;;;5089087;28;20040;-79
2021/06/08 03:20:37;;;;;;;20.90;18.48;;;14.70;99.90;;;;;;5088731;28;20075;-79
2021/06/08 03:23:06;;;;;;;22.50;19.30;;;14.70;99.90;;;;;;5088688;28;20039;-79
2021/06/08 03:25:34;;;;;;;20.02;17.92;;;14.70;99.90;;;;;;5090005;28;20024;-79
2021/06/08 03:28:01;;;;;;;22.98;20.45;;;14.70;99.90;;;;;;5089037;28;20036;-79
2021/06/08 03:30:28;;;;;;;23.92;20.35;;;14.70;99.90;;;;;;5089663;28;20044;-79
2021/06/08 03:32:55;;;;;;;25.60;21.05;;;14.60;99.90;;;;;;5089954;28;20044;-79
2021/06/08 03:35:23;;;;;;;24.15;20.65;;;14.70;99.90;;;;;;5051250;28;20030;-79
2021/06/08 03:37:50;;;;;;;27.38;20.73;;;14.70;99.90;;;;;;5068626;28;20031;-79
2021/06/08 03:40:20;;;;;;;23.77;20.90;;;14.60;99.90;;;;;;5121784;27;20062;-80
2021/06/08 03:42:46;;;;;;;25.52;21.25;;;14.60;99.90;;;;;;5089038;28;20112;-79
2021/06/08 03:45:14;;;;;;;24.10;20.15;;;14.60;99.90;;;;;;5087156;28;20047;-79
2021/06/08 03:47:44;;;;;;;23.13;19.25;;;14.60;99.90;;;;;;5083639;28;20497;-79
2021/06/08 03:50:12;;;;;;;23.10;19.20;;;14.60;99.90;;;;;;5087633;28;20085;-79
2021/06/08 03:52:39;;;;;;;23.48;20.35;;;14.60;99.90;;;;;;5089149;28;20135;-79
2021/06/08 03:55:06;;;;;;;20.42;17.52;;;14.60;99.90;;;;;;5088342;28;20036;-79
2021/06/08 03:57:39;;;;;;;19.42;17.13;;;14.60;99.90;;;;;;5089623;28;20406;-79
2021/06/08 04:00:09;;;;;;;19.85;17.17;;;14.60;99.90;;;;;;5051608;28;20048;-78
2021/06/08 04:02:38;;;;;;;22.77;17.45;;;14.60;99.90;;;;;;5068439;28;20041;-79
2021/06/08 04:05:09;;;;;;;28.73;17.35;;;14.60;99.90;;;;;;5085473;28;20024;-79
2021/06/08 04:07:42;;;;;;;19.23;17.13;;;14.50;99.90;;;;;;5088865;28;20032;-79
2021/06/08 04:10:13;;;;;;;19.85;17.08;;;14.40;99.90;;;;;;5067498;28;20048;-79
2021/06/08 04:12:39;;;;;;;20.80;18.25;;;14.50;99.90;;;;;;5068018;28;20037;-79
2021/06/08 04:15:07;;;;;;;19.45;16.52;;;14.40;99.90;;;;;;5057270;28;20043;-79
2021/06/08 04:17:33;;;;;;;20.63;16.10;;;14.40;99.90;;;;;;5089312;28;20460;-79
2021/06/08 04:20:00;;;;;;;19.88;16.88;;;14.40;99.90;;;;;;5087092;28;20208;-79
2021/06/08 04:22:34;;;;;;;19.27;15.95;;;14.40;99.90;;;;;;5088770;28;20032;-79
2021/06/08 04:25:01;;;;;;;20.25;16.67;;;14.40;99.90;;;;;;5087685;28;20039;-79
2021/06/08 04:27:28;;;;;;;17.42;15.20;;;14.40;99.90;;;;;;5071423;28;20082;-79
2021/06/08 04:29:56;;;;;;;18.55;15.65;;;14.50;99.90;;;;;;5070470;28;20487;-79
2021/06/08 04:32:22;;;;;;;18.25;15.75;;;14.50;99.90;;;;;;5070817;28;20047;-79
2021/06/08 04:34:48;;;;;;;19.58;16.63;;;14.50;99.90;;;;;;5088401;28;20036;-79
2021/06/08 04:37:15;;;;;;;17.92;14.88;;;14.50;99.90;;;;;;5086201;28;20127;-79
2021/06/08 04:39:41;;;;;;;20.08;15.73;;;14.50;99.90;;;;;;5070944;28;20044;-79
2021/06/08 04:42:09;;;;;;;19.52;15.68;;;14.50;99.90;;;;;;5087562;28;20039;-79
2021/06/08 04:44:35;;;;;;;22.75;16.77;;;14.50;99.90;;;;;;5086866;28;20032;-78
2021/06/08 04:47:01;;;;;;;20.52;17.23;;;14.50;99.90;;;;;;5066775;28;20036;-79
2021/06/08 04:49:31;;;;;;;28.20;17.15;;;14.40;99.90;;;;;;5067479;28;20496;-79
2021/06/08 04:51:57;;;;;;;19.50;16.70;;;14.50;99.90;;;;;;5083312;28;20036;-79
2021/06/08 04:54:24;;;;;;;19.25;15.65;;;14.40;99.90;;;;;;5083850;28;20055;-79
2021/06/08 04:57:06;;;;;;;17.92;14.57;;;14.50;99.90;;;;;;5085750;28;20036;-79
2021/06/08 04:59:38;;;;;;;17.60;15.35;;;14.50;99.90;;;;;;5086555;28;20040;-79
2021/06/08 05:02:08;;;;;;;19.92;16.25;;;14.50;99.90;;;;;;5088190;28;20502;-79
2021/06/08 05:04:38;;;;;;;17.13;15.20;;;14.50;99.90;;;;;;5085352;28;20036;-79
2021/06/08 05:07:07;;;;;;;17.13;14.82;;;14.50;99.90;;;;;;5086057;28;20081;-79
2021/06/08 05:09:39;;;;;;;18.05;15.38;;;14.50;99.90;;;;;;5078131;28;20036;-78
2021/06/08 05:12:09;;;;;;;18.50;16.50;;;14.60;99.90;;;;;;5077055;28;20036;-79
2021/06/08 05:14:37;;;;;;;20.58;15.30;;;14.60;99.90;;;;;;5075104;28;20107;-79
2021/06/08 05:17:03;;;;;;;18.98;16.20;;;14.60;99.90;;;;;;5075803;28;20040;-79
2021/06/08 05:19:35;;;;;;;;;;;14.50;99.90;;;;;;5065119;28;20048;-79
2021/06/08 05:22:23;;;;;;;16.77;14.68;;;14.60;99.90;;;;;;5067671;28;19927;-78
2021/06/08 05:24:55;;;;;;;17.20;15.15;;;14.50;99.90;;;;;;5085695;28;20111;-79
2021/06/08 05:27:41;;;;;;;18.50;15.73;;;14.60;99.90;;;;;;5085709;28;20040;-79
2021/06/08 05:30:09;;;;;;;17.50;15.05;;;14.60;99.90;;;;;;5088300;28;20106;-79
2021/06/08 05:32:38;;;;;;;18.20;15.55;;;14.60;99.90;;;;;;5086847;28;20032;-79
2021/06/08 05:35:07;;;;;;;16.52;14.68;;;14.60;99.90;;;;;;5083765;28;20036;-79
2021/06/08 05:37:42;;;;;;;17.88;15.38;;;14.60;99.90;;;;;;5085804;28;20083;-79
2021/06/08 05:40:10;;;;;;;17.02;14.45;;;14.70;99.90;;;;;;5110240;28;20036;-79
2021/06/08 05:42:39;;;;;;;19.80;16.13;;;14.70;99.90;;;;;;5087007;28;20036;-79
2021/06/08 05:45:06;;;;;;;19.23;15.98;;;14.70;99.90;;;;;;5069684;28;20029;-78
2021/06/08 05:47:51;;;;;;;18.48;15.68;;;14.70;99.90;;;;;;5085515;28;20055;-79
2021/06/08 05:50:21;;;;;;;19.20;16.35;;;14.80;99.90;;;;;;5084523;28;20028;-79
2021/06/08 05:52:53;;;;;;;16.33;14.52;;;14.80;99.90;;;;;;5061546;28;20060;-79
2021/06/08 05:55:24;;;;;;;14.98;13.40;;;14.80;99.90;;;;;;5087514;28;20036;-79
2021/06/08 05:58:10;;;;;;;14.10;12.50;;;14.90;99.90;;;;;;5072174;28;20462;-79
2021/06/08 06:00:42;;;;;;;14.23;12.73;;;14.90;99.90;;;;;;5087722;28;20051;-79
2021/06/08 06:03:09;;;;;;;14.95;12.15;;;14.90;99.90;;;;;;5087344;28;20036;-79
2021/06/08 06:05:47;;;;;;;12.68;11.38;;;14.90;99.90;;;;;;5070641;28;20036;-79
2021/06/08 06:08:15;;;;;;;12.43;11.13;;;14.90;99.90;;;;;;5075166;28;20045;-79
2021/06/08 06:10:42;;;;;;;13.18;11.48;;;14.90;99.90;;;;;;5098500;28;20039;-79
2021/06/08 06:13:20;;;;;;;15.23;12.90;;;15.00;99.90;;;;;;5072499;28;20036;-79
2021/06/08 06:15:47;;;;;;;14.40;12.90;;;15.00;99.90;;;;;;5085079;28;20040;-79
2021/06/08 06:18:29;;;;;;;14.82;13.23;;;15.00;99.90;;;;;;5053750;28;20702;-79
2021/06/08 06:21:17;;;;;;;13.98;12.48;;;15.00;99.90;;;;;;5056978;28;20413;-79
2021/06/08 06:23:43;;;;;;;17.95;14.35;;;15.00;99.90;;;;;;5078742;28;20036;-80
2021/06/08 06:26:14;;;;;;;14.38;12.88;;;15.10;99.90;;;;;;5095288;28;20039;-80
2021/06/08 06:28:44;;;;;;;15.50;13.48;;;15.10;99.90;;;;;;5068929;28;20040;-79
2021/06/08 06:31:30;;;;;;;15.30;13.50;;;15.10;99.90;;;;;;5090458;28;20093;-80
2021/06/08 06:34:10;;;;;;;13.98;12.35;;;15.00;99.90;;;;;;5074736;28;20090;-80
2021/06/08 06:36:58;;;;;;;15.30;12.15;;;15.10;99.90;;;;;;5075591;28;20068;-80
2021/06/08 06:39:27;;;;;;;13.35;11.80;;;15.10;99.90;;;;;;5072682;28;20040;-80
2021/06/08 06:41:56;;;;;;;14.02;12.23;;;15.10;99.90;;;;;;5111947;27;20035;-80
2021/06/08 06:44:24;;;;;;;11.93;10.73;;;15.10;99.90;;;;;;5089483;28;20077;-80
2021/06/08 06:46:52;;;;;;;12.55;11.25;;;15.10;99.90;;;;;;5069197;28;20036;-80
2021/06/08 06:49:19;;;;;;;12.43;11.13;;;15.10;99.90;;;;;;5072085;28;20481;-79
2021/06/08 06:51:46;;;;;;;12.45;10.80;;;15.10;99.90;;;;;;5088789;28;20088;-81
2021/06/08 06:54:15;;;;;;;12.48;10.25;;;15.10;99.90;;;;;;5089770;28;20080;-80
2021/06/08 06:56:44;;;;;;;12.43;11.18;;;15.10;99.90;;;;;;5089849;28;20024;-80
2021/06/08 06:59:09;;;;;;;13.25;11.77;;;15.10;99.90;;;;;;5090078;28;20487;-80
2021/06/08 07:01:37;;;;;;;12.38;11.07;;;15.20;99.90;;;;;;5053437;28;20068;-80
2021/06/08 07:04:04;;;;;;;13.73;12.25;;;15.10;99.90;;;;;;5077603;28;20441;-80
2021/06/08 07:06:31;;;;;;;13.38;11.98;;;15.20;99.90;;;;;;5055984;28;20066;-80
2021/06/08 07:08:59;;;;;;;13.77;12.38;;;15.20;99.90;;;;;;5071986;28;20050;-79
2021/06/08 07:11:29;;;;;;;;;;;15.20;99.90;;;;;;5090101;28;20036;-80
2021/06/08 07:13:58;;;;;;;13.85;12.35;;;15.20;99.90;;;;;;5072127;28;19920;-80
2021/06/08 07:16:25;;;;;;;13.45;12.05;;;15.10;99.90;;;;;;5090456;28;20032;-80
2021/06/08 07:18:53;;;;;;;14.40;12.90;;;15.10;99.90;;;;;;5088337;28;20044;-80
2021/06/08 07:21:21;;;;;;;15.10;13.50;;;15.10;99.90;;;;;;5054198;28;20048;-79
2021/06/08 07:23:54;;;;;;;15.93;13.35;;;15.20;99.90;;;;;;5086001;28;20040;-79
2021/06/08 07:26:23;;;;;;;15.45;13.80;;;15.20;99.90;;;;;;5087943;28;20036;-80
2021/06/08 07:29:10;;;;;;;15.05;13.45;;;15.20;99.90;;;;;;5090377;28;20043;-87
2021/06/08 07:31:54;;;;;;;14.38;12.75;;;15.20;99.90;;;;;;5065155;28;20032;-80
2021/06/08 07:34:26;;;;;;;15.90;14.15;;;15.20;99.90;;;;;;5091129;28;20032;-80
2021/06/08 07:36:55;;;;;;;15.75;13.85;;;15.20;99.90;;;;;;5084382;28;20113;-80
2021/06/08 07:40:07;;;;;;;15.88;13.73;;;15.20;99.90;;;;;;5087257;28;20040;-80
2021/06/08 07:42:42;;;;;;;17.15;15.32;;;15.20;99.90;;;;;;5072341;28;20497;-81
2021/06/08 07:45:10;;;;;;;18.17;15.48;;;15.10;99.90;;;;;;5087676;28;20060;-80
2021/06/08 07:47:59;;;;;;;17.23;14.60;;;15.10;99.90;;;;;;5087139;28;20048;-80
2021/06/08 07:50:49;;;;;;;16.83;15.02;;;15.20;99.90;;;;;;5088628;28;20032;-80
2021/06/08 07:53:19;;;;;;;17.35;14.80;;;15.20;99.90;;;;;;5088319;28;20059;-80
2021/06/08 07:55:48;;;;;;;19.95;15.95;;;15.30;99.90;;;;;;5087633;28;20047;-80
2021/06/08 07:58:25;;;;;;;17.73;15.85;;;15.30;99.90;;;;;;5087843;28;20031;-80
2021/06/08 08:00:57;;;;;;;18.30;16.27;;;15.30;99.90;;;;;;5084392;28;20593;-80
2021/06/08 08:03:44;;;;;;;20.50;16.23;;;15.40;99.90;;;;;;5110008;27;20059;-80
2021/06/08 08:06:12;;;;;;;19.90;17.30;;;15.40;99.90;;;;;;5097169;28;20049;-80
2021/06/08 08:08:40;;;;;;;18.88;16.85;;;15.50;99.90;;;;;;5088569;28;20059;-80
2021/06/08 08:11:11;;;;;;;20.73;16.80;;;15.50;99.90;;;;;;5096508;28;20027;-80
2021/06/08 08:13:57;;;;;;;17.70;15.32;;;15.60;99.90;;;;;;5082952;28;20989;-80
2021/06/08 08:16:47;;;;;;;17.75;15.70;;;15.70;99.90;;;;;;5050154;28;20528;-80
2021/06/08 08:19:25;;;;;;;17.05;15.13;;;15.70;99.90;;;;;;5093742;28;20425;-80
2021/06/08 08:22:11;;;;;;;16.30;13.75;;;15.70;99.90;;;;;;5081921;28;20123;-80
2021/06/08 08:24:56;;;;;;;16.27;14.32;;;15.80;99.90;;;;;;5093855;28;20435;-80
2021/06/08 08:27:42;;;;;;;15.63;13.98;;;15.80;99.90;;;;;;5081004;28;20051;-80
2021/06/08 08:30:08;;;;;;;18.42;16.25;;;15.90;99.90;;;;;;5062480;28;20039;-81
2021/06/08 08:32:39;;;;;;;16.83;15.00;;;15.90;99.90;;;;;;5094605;28;20051;-80
2021/06/08 08:35:11;;;;;;;17.38;15.32;;;16.00;99.90;;;;;;5078527;28;20032;-80
2021/06/08 08:37:37;;;;;;;16.63;14.77;;;16.10;99.90;;;;;;5087318;28;20050;-80
2021/06/08 08:40:04;;;;;;;16.45;14.75;;;16.10;99.90;;;;;;5070067;28;20048;-80
2021/06/08 08:42:31;;;;;;;16.65;14.88;;;16.20;99.90;;;;;;5086057;28;20051;-80
2021/06/08 08:44:58;;;;;;;19.05;15.82;;;16.20;99.90;;;;;;5066929;28;20032;-80
2021/06/08 08:47:26;;;;;;;17.95;15.85;;;16.30;99.90;;;;;;5095441;28;20039;-80
2021/06/08 08:49:52;;;;;;;17.60;15.77;;;16.40;99.90;;;;;;5087090;28;20082;-80
2021/06/08 08:52:21;;;;;;;18.35;14.73;;;16.40;99.90;;;;;;5069444;28;20065;-80
2021/06/08 08:55:00;;;;;;;15.55;13.82;;;16.40;99.90;;;;;;5087698;28;20028;-80
2021/06/08 08:57:28;;;;;;;14.90;13.32;;;16.50;99.90;;;;;;5070317;28;20032;-80
2021/06/08 09:00:07;;;;;;;15.35;13.75;;;16.60;99.90;;;;;;5071899;28;20506;-80
2021/06/08 09:02:58;;;;;;;14.00;12.52;;;16.50;99.90;;;;;;5057788;28;20043;-81
2021/06/08 09:05:26;;;;;;;11.82;10.52;;;16.60;99.90;;;;;;5085033;28;20062;-80
2021/06/08 09:07:54;;;;;;;12.32;10.45;;;16.70;99.90;;;;;;5069533;28;20036;-80
2021/06/08 09:10:21;;;;;;;10.68;9.55;;;16.70;99.90;;;;;;5069573;28;20471;-80
2021/06/08 09:12:49;;;;;;;11.55;10.05;;;16.70;99.90;;;;;;5075578;28;20047;-80
2021/06/08 09:15:16;;;;;;;13.35;10.30;;;16.80;99.90;;;;;;5076299;28;20089;-81
2021/06/08 09:17:45;;;;;;;11.95;10.48;;;16.80;99.90;;;;;;5092512;28;20029;-81
2021/06/08 09:20:13;;;;;;;11.27;10.07;;;16.80;99.90;;;;;;5109040;27;20044;-81
2021/06/08 09:22:58;;;;;;;9.05;7.75;;;16.80;99.90;;;;;;5077714;28;20039;-81
2021/06/08 09:25:36;;;;;;;13.07;6.95;;;16.80;99.90;;;;;;5092931;28;20031;-81
2021/06/08 09:28:28;;;;;;;7.95;7.03;;;16.80;99.90;;;;;;5097286;28;20452;-81
2021/06/08 09:31:15;;;;;;;8.57;7.77;;;16.90;99.90;;;;;;5093224;28;20032;-81
2021/06/08 09:33:52;;;;;;;10.90;9.07;;;16.90;99.90;;;;;;5116047;28;20035;-82
2021/06/08 09:36:22;;;;;;;9.57;8.52;;;17.00;99.90;;;;;;5095459;28;20114;-81
2021/06/08 09:38:57;;;;;;;9.82;8.82;;;17.00;99.90;;;;;;5097342;28;20555;-81
2021/06/08 09:41:43;;;;;;;10.57;9.00;;;17.00;99.90;;;;;;5074981;28;20043;-82
2021/06/08 09:44:19;;;;;;;14.40;9.43;;;17.10;99.90;;;;;;5098309;28;20059;-81
2021/06/08 09:46:59;;;;;;;10.15;8.65;;;17.10;99.90;;;;;;5095690;28;20486;-81
2021/06/08 09:49:31;;;;;;;9.35;7.00;;;17.20;99.90;;;;;;5096944;28;20368;-81
2021/06/08 09:52:06;;;;;;;9.57;7.45;;;17.20;99.90;;;;;;5095152;28;20067;-81
2021/06/08 09:54:42;;;;;;;8.35;7.47;;;17.20;99.90;;;;;;5098329;28;20383;-81
2021/06/08 09:57:28;;;;;;;8.80;7.53;;;17.30;99.90;;;;;;5092737;28;20758;-81
2021/06/08 09:59:57;;;;;;;7.43;6.60;;;17.40;99.90;;;;;;5096883;28;20032;-81
2021/06/08 10:02:24;;;;;;;9.48;8.00;;;17.50;99.90;;;;;;5093438;28;20566;-80
2021/06/08 10:04:51;;;;;;;9.18;7.53;;;17.50;99.90;;;;;;5095278;28;20036;-81
2021/06/08 10:07:29;;;;;;;8.52;6.93;;;17.40;99.90;;;;;;5078600;28;20048;-81
2021/06/08 10:10:03;;;;;;;10.55;7.40;;;17.50;99.90;;;;;;5115200;27;20090;-80
2021/06/08 10:12:29;;;;;;;7.32;5.80;;;17.60;99.90;;;;;;5096746;28;20036;-81
2021/06/08 10:15:05;;;;;;;7.28;5.72;;;17.70;99.90;;;;;;5096073;28;20032;-81
2021/06/08 10:17:34;;;;;;;7.40;6.70;;;17.80;99.90;;;;;;5088583;28;20253;-81
2021/06/08 10:20:30;;;;;;;10.65;6.95;;;17.90;99.90;;;;;;5072137;28;20052;-81
2021/06/08 10:22:58;;;;;;;8.02;5.88;;;18.00;99.90;;;;;;5081272;28;20039;-81
2021/06/08 10:25:45;;;;;;;8.05;7.25;;;18.00;99.90;;;;;;5089521;28;20537;-81
2021/06/08 10:28:15;;;;;;;8.35;6.07;;;18.10;99.90;;;;;;5088722;28;20072;-81
2021/06/08 10:30:43;;;;;;;11.90;7.55;;;18.20;99.90;;;;;;5089576;28;20036;-81
2021/06/08 10:33:22;;;;;;;9.18;7.07;;;18.20;99.90;;;;;;5072757;28;20071;-81
2021/06/08 10:35:49;;;;;;;8.43;5.85;;;18.20;99.90;;;;;;5072674;28;20085;-81
2021/06/08 10:38:16;;;;;;;10.82;6.97;;;18.30;99.90;;;;;;5089407;28;20036;-81
2021/06/08 10:40:46;;;;;;;6.05;4.60;;;18.50;99.90;;;;;;5095891;28;20506;-81
2021/06/08 10:43:17;;;;;;;6.93;4.22;;;18.50;99.90;;;;;;5098369;28;20119;-81
2021/06/08 10:45:44;;;;;;;5.57;4.80;;;18.50;99.90;;;;;;5100344;28;20035;-81
2021/06/08 10:48:18;;;;;;;6.60;6.00;;;18.40;99.90;;;;;;5097235;28;20039;-81
2021/06/08 10:50:47;;;;;;;10.18;6.00;;;18.40;99.90;;;;;;5093198;28;20036;-81
2021/06/08 10:53:29;;;;;;;8.40;6.28;;;18.40;99.90;;;;;;5070686;28;20044;-81
2021/06/08 10:55:58;;;;;;;9.18;5.63;;;18.40;99.90;;;;;;5089947;28;20036;-81
2021/06/08 10:59:04;;;;;;;6.18;5.07;;;18.40;99.90;;;;;;5067878;28;20093;-81
2021/06/08 11:01:38;;;;;;;7.20;6.25;;;18.40;99.90;;;;;;5039093;28;20056;-81
2021/06/08 11:04:05;;;;;;;;;;;18.40;99.90;;;;;;5047252;28;20401;-82
2021/06/08 11:06:38;;;;;;;7.95;5.63;;;18.40;99.90;;;;;;5060651;28;19923;-83
2021/06/08 11:09:07;;;;;;;7.82;4.90;;;18.50;99.90;;;;;;5087814;28;20089;-81
2021/06/08 11:11:56;;;;;;;7.33;5.10;;;18.70;99.90;;;;;;5087100;28;20558;-81
2021/06/08 11:14:37;;;;;;;6.63;4.38;;;19.00;99.90;;;;;;5109083;27;20566;-80
2021/06/08 11:17:03;;;;;;;5.60;4.60;;;19.20;99.90;;;;;;5086284;28;20036;-81
2021/06/08 11:19:44;;;;;;;6.35;4.35;;;19.30;99.90;;;;;;5079704;28;20032;-81
2021/06/08 11:22:12;;;;;;;6.63;4.80;;;19.30;99.90;;;;;;5088643;28;20028;-81
2021/06/08 11:24:40;;;;;;;6.07;4.53;;;19.40;99.90;;;;;;5087419;28;20032;-81
2021/06/08 11:27:07;;;;;;;6.70;5.15;;;19.40;99.90;;;;;;5088960;28;20037;-81
2021/06/08 11:29:54;;;;;;;5.20;4.40;;;19.30;99.90;;;;;;5071084;28;20043;-80
2021/06/08 11:32:29;;;;;;;7.07;5.45;;;19.30;99.90;;;;;;5086714;28;20024;-80
2021/06/08 11:35:09;;;;;;;6.35;4.50;;;19.20;99.90;;;;;;5088393;28;20039;-80
2021/06/08 11:37:54;;;;;;;5.82;5.22;;;19.10;99.90;;;;;;5087933;28;20115;-80
2021/06/08 11:40:38;;;;;;;7.03;5.68;;;19.10;99.90;;;;;;5071626;28;20777;-80
2021/06/08 11:43:04;;;;;;;5.90;4.45;;;19.00;99.90;;;;;;5079528;28;20502;-80
2021/06/08 11:45:31;;;;;;;8.98;6.40;;;19.00;99.90;;;;;;5083568;28;20032;-80
2021/06/08 11:47:58;;;;;;;7.68;5.75;;;19.00;99.90;;;;;;5094435;28;20063;-81
2021/06/08 11:50:41;;;;;;;7.43;6.05;;;19.10;99.90;;;;;;5079531;28;20040;-80
2021/06/08 11:53:13;;;;;;;8.35;5.95;;;19.30;99.90;;;;;;5080753;28;20535;-80
2021/06/08 11:55:40;;;;;;;8.48;5.93;;;19.40;99.90;;;;;;5083857;28;20027;-81
2021/06/08 11:58:33;;;;;;;7.40;6.28;;;19.40;99.90;;;;;;5051524;28;20045;-80
2021/06/08 12:01:02;;;;;;;9.00;6.22;;;19.40;99.90;;;;;;5069638;28;20047;-80
2021/06/08 12:03:38;;;;;;;10.50;5.30;;;19.40;99.90;;;;;;5071161;28;20028;-80
2021/06/08 12:06:07;;;;;;;7.93;5.53;;;19.40;99.90;;;;;;5086126;28;20039;-80
2021/06/08 12:08:36;;;;;;;6.40;5.38;;;19.40;99.90;;;;;;5070555;28;20040;-80
2021/06/08 12:11:15;;;;;;;5.75;4.78;;;19.40;99.90;;;;;;5086938;28;20130;-81
2021/06/08 12:13:43;;;;;;;6.03;5.07;;;19.40;99.90;;;;;;5069774;28;20586;-81
2021/06/08 12:16:16;;;;;;;10.63;5.25;;;19.60;99.90;;;;;;5088556;28;20031;-84
2021/06/08 12:18:43;;;;;;;5.55;4.95;;;19.80;99.90;;;;;;5088026;28;20060;-81
2021/06/08 12:21:16;;;;;;;6.45;4.68;;;19.80;99.90;;;;;;5086977;28;20843;-81
2021/06/08 12:23:43;;;;;;;5.50;4.50;;;19.90;99.90;;;;;;5085182;28;20492;-81
2021/06/08 12:26:24;;;;;;;6.40;4.15;;;19.90;99.90;;;;;;5086957;28;20032;-81
2021/06/08 12:29:07;;;;;;;6.25;4.38;;;19.80;99.90;;;;;;5086457;28;20036;-81
2021/06/08 12:31:35;;;;;;;7.13;4.80;;;19.80;99.90;;;;;;5077082;28;20694;-81
2021/06/08 12:34:08;;;;;;;6.13;4.10;;;19.70;99.90;;;;;;5069766;28;20078;-81
2021/06/08 12:36:39;;;;;;;6.10;4.10;;;19.70;99.90;;;;;;5086812;28;20043;-81
2021/06/08 12:39:11;;;;;;;6.25;4.03;;;19.80;99.90;;;;;;5086679;28;20032;-81
2021/06/08 12:41:38;;;;;;;7.65;4.38;;;19.80;99.90;;;;;;5085602;28;20039;-81
2021/06/08 12:44:04;;;;;;;11.57;5.60;;;19.80;99.90;;;;;;5087482;28;20411;-81
2021/06/08 12:46:36;;;;;;;6.07;4.97;;;19.70;99.90;;;;;;5086651;28;20097;-81
2021/06/08 12:49:04;;;;;;;;;;;19.70;99.90;;;;;;5087773;28;20040;-81
2021/06/08 12:51:32;;;;;;;8.60;5.50;;;19.60;99.90;;;;;;5069043;28;19923;-82
2021/06/08 12:53:58;;;;;;;7.32;4.20;;;19.60;99.90;;;;;;5066386;28;20059;-81
2021/06/08 12:56:24;;;;;;;10.75;6.00;;;19.70;99.90;;;;;;5078846;28;20078;-81
2021/06/08 12:58:51;;;;;;;5.97;4.35;;;19.70;99.90;;;;;;5086439;28;20089;-81